sensor_id;sensor_type;location;lat;lon;timestamp;P1;durP1;ratioP1;P2;durP2;ratioP2
54795;SDS011;40693;43.884;20.340;2022-08-21T00:01:22;21.58;;;16.83;;
54795;SDS011;40693;43.884;20.340;2022-08-21T00:03:51;19.48;;;14.48;;
54795;SDS011;40693;43.884;20.340;2022-08-21T00:06:17;25.08;;;15.50;;
54795;SDS011;40693;43.884;20.340;2022-08-21T00:08:44;23.35;;;16.73;;
54795;SDS011;40693;43.884;20.340;2022-08-21T00:11:10;26.88;;;15.95;;
54795;SDS011;40693;43.884;20.340;2022-08-21T00:13:36;26.40;;;17.52;;
54795;SDS011;40693;43.884;20.340;2022-08-21T00:16:03;20.67;;;16.02;;
54795;SDS011;40693;43.884;20.340;2022-08-21T00:18:29;21.20;;;17.08;;
54795;SDS011;40693;43.884;20.340;2022-08-21T00:20:55;22.90;;;16.98;;
54795;SDS011;40693;43.884;20.340;2022-08-21T00:23:21;22.48;;;17.50;;
54795;SDS011;40693;43.884;20.340;2022-08-21T00:25:47;29.42;;;19.42;;
54795;SDS011;40693;43.884;20.340;2022-08-21T00:28:13;26.88;;;20.75;;
54795;SDS011;40693;43.884;20.340;2022-08-21T00:30:40;23.35;;;17.80;;
54795;SDS011;40693;43.884;20.340;2022-08-21T00:33:07;29.42;;;19.63;;
54795;SDS011;40693;43.884;20.340;2022-08-21T00:35:35;26.25;;;19.63;;
54795;SDS011;40693;43.884;20.340;2022-08-21T00:38:03;25.15;;;19.48;;
54795;SDS011;40693;43.884;20.340;2022-08-21T00:40:32;26.90;;;19.00;;
54795;SDS011;40693;43.884;20.340;2022-08-21T00:43:03;22.70;;;17.85;;
54795;SDS011;40693;43.884;20.340;2022-08-21T00:45:31;24.05;;;19.02;;
54795;SDS011;40693;43.884;20.340;2022-08-21T00:47:58;22.23;;;18.75;;
54795;SDS011;40693;43.884;20.340;2022-08-21T00:50:26;23.90;;;18.00;;
54795;SDS011;40693;43.884;20.340;2022-08-21T00:52:56;25.75;;;18.58;;
54795;SDS011;40693;43.884;20.340;2022-08-21T00:55:23;20.77;;;17.63;;
54795;SDS011;40693;43.884;20.340;2022-08-21T00:57:51;23.70;;;18.20;;
54795;SDS011;40693;43.884;20.340;2022-08-21T01:00:21;25.58;;;16.42;;
54795;SDS011;40693;43.884;20.340;2022-08-21T01:02:56;24.98;;;16.33;;
54795;SDS011;40693;43.884;20.340;2022-08-21T01:05:23;22.25;;;15.73;;
54795;SDS011;40693;43.884;20.340;2022-08-21T01:07:50;26.63;;;16.48;;
54795;SDS011;40693;43.884;20.340;2022-08-21T01:10:16;18.42;;;15.13;;
54795;SDS011;40693;43.884;20.340;2022-08-21T01:12:42;18.95;;;14.68;;
54795;SDS011;40693;43.884;20.340;2022-08-21T01:15:09;18.88;;;14.02;;
54795;SDS011;40693;43.884;20.340;2022-08-21T01:17:36;14.32;;;12.27;;
54795;SDS011;40693;43.884;20.340;2022-08-21T01:20:04;17.73;;;13.23;;
54795;SDS011;40693;43.884;20.340;2022-08-21T01:22:32;18.08;;;12.60;;
54795;SDS011;40693;43.884;20.340;2022-08-21T01:24:58;18.88;;;12.25;;
54795;SDS011;40693;43.884;20.340;2022-08-21T01:27:23;17.13;;;12.48;;
54795;SDS011;40693;43.884;20.340;2022-08-21T01:32:23;16.27;;;10.90;;
54795;SDS011;40693;43.884;20.340;2022-08-21T01:34:49;16.80;;;11.80;;
54795;SDS011;40693;43.884;20.340;2022-08-21T01:37:16;14.98;;;11.57;;
54795;SDS011;40693;43.884;20.340;2022-08-21T01:39:44;15.43;;;11.13;;
54795;SDS011;40693;43.884;20.340;2022-08-21T01:42:11;20.02;;;11.57;;
54795;SDS011;40693;43.884;20.340;2022-08-21T01:44:37;17.25;;;10.63;;
54795;SDS011;40693;43.884;20.340;2022-08-21T01:47:06;16.48;;;12.57;;
54795;SDS011;40693;43.884;20.340;2022-08-21T01:49:33;15.02;;;11.68;;
54795;SDS011;40693;43.884;20.340;2022-08-21T01:52:00;18.67;;;12.23;;
54795;SDS011;40693;43.884;20.340;2022-08-21T01:54:26;17.33;;;13.25;;
54795;SDS011;40693;43.884;20.340;2022-08-21T01:56:52;13.38;;;11.80;;
54795;SDS011;40693;43.884;20.340;2022-08-21T01:59:20;15.60;;;12.10;;
54795;SDS011;40693;43.884;20.340;2022-08-21T02:01:48;13.48;;;11.60;;
54795;SDS011;40693;43.884;20.340;2022-08-21T02:04:14;15.02;;;11.20;;
54795;SDS011;40693;43.884;20.340;2022-08-21T02:06:41;14.40;;;12.10;;
54795;SDS011;40693;43.884;20.340;2022-08-21T02:09:08;17.83;;;12.57;;
54795;SDS011;40693;43.884;20.340;2022-08-21T02:11:35;15.38;;;11.48;;
54795;SDS011;40693;43.884;20.340;2022-08-21T02:14:01;16.88;;;13.65;;
54795;SDS011;40693;43.884;20.340;2022-08-21T02:16:27;16.30;;;12.65;;
54795;SDS011;40693;43.884;20.340;2022-08-21T02:18:53;16.25;;;12.18;;
54795;SDS011;40693;43.884;20.340;2022-08-21T02:21:19;14.85;;;12.85;;
54795;SDS011;40693;43.884;20.340;2022-08-21T02:23:44;12.40;;;10.95;;
54795;SDS011;40693;43.884;20.340;2022-08-21T02:26:10;14.32;;;10.57;;
54795;SDS011;40693;43.884;20.340;2022-08-21T02:28:37;13.10;;;10.77;;
54795;SDS011;40693;43.884;20.340;2022-08-21T02:31:04;15.07;;;10.75;;
54795;SDS011;40693;43.884;20.340;2022-08-21T02:33:30;14.13;;;11.75;;
54795;SDS011;40693;43.884;20.340;2022-08-21T02:35:56;13.55;;;10.77;;
54795;SDS011;40693;43.884;20.340;2022-08-21T02:38:25;12.52;;;10.35;;
54795;SDS011;40693;43.884;20.340;2022-08-21T02:40:53;12.07;;;8.48;;
54795;SDS011;40693;43.884;20.340;2022-08-21T02:43:20;8.90;;;7.28;;
54795;SDS011;40693;43.884;20.340;2022-08-21T02:45:47;8.52;;;6.90;;
54795;SDS011;40693;43.884;20.340;2022-08-21T02:48:14;9.05;;;6.70;;
54795;SDS011;40693;43.884;20.340;2022-08-21T02:50:46;8.10;;;6.53;;
54795;SDS011;40693;43.884;20.340;2022-08-21T02:53:16;8.15;;;6.82;;
54795;SDS011;40693;43.884;20.340;2022-08-21T02:55:44;7.88;;;6.47;;
54795;SDS011;40693;43.884;20.340;2022-08-21T02:58:12;9.68;;;6.57;;
54795;SDS011;40693;43.884;20.340;2022-08-21T03:00:40;7.22;;;5.90;;
54795;SDS011;40693;43.884;20.340;2022-08-21T03:03:06;10.65;;;6.25;;
54795;SDS011;40693;43.884;20.340;2022-08-21T03:05:33;8.48;;;6.70;;
54795;SDS011;40693;43.884;20.340;2022-08-21T03:08:00;10.02;;;7.55;;
54795;SDS011;40693;43.884;20.340;2022-08-21T03:10:27;15.75;;;7.38;;
54795;SDS011;40693;43.884;20.340;2022-08-21T03:12:53;10.57;;;7.72;;
54795;SDS011;40693;43.884;20.340;2022-08-21T03:15:21;9.10;;;7.20;;
54795;SDS011;40693;43.884;20.340;2022-08-21T03:17:49;12.23;;;8.30;;
54795;SDS011;40693;43.884;20.340;2022-08-21T03:20:17;11.05;;;8.40;;
54795;SDS011;40693;43.884;20.340;2022-08-21T03:22:44;13.32;;;8.93;;
54795;SDS011;40693;43.884;20.340;2022-08-21T03:25:11;9.90;;;8.05;;
54795;SDS011;40693;43.884;20.340;2022-08-21T03:27:37;10.88;;;9.02;;
54795;SDS011;40693;43.884;20.340;2022-08-21T03:30:03;11.95;;;8.38;;
54795;SDS011;40693;43.884;20.340;2022-08-21T03:32:31;12.07;;;8.57;;
54795;SDS011;40693;43.884;20.340;2022-08-21T03:34:57;11.70;;;8.07;;
54795;SDS011;40693;43.884;20.340;2022-08-21T03:37:24;14.05;;;9.63;;
54795;SDS011;40693;43.884;20.340;2022-08-21T03:39:50;14.15;;;9.10;;
54795;SDS011;40693;43.884;20.340;2022-08-21T03:42:16;11.27;;;8.40;;
54795;SDS011;40693;43.884;20.340;2022-08-21T03:44:41;12.75;;;9.15;;
54795;SDS011;40693;43.884;20.340;2022-08-21T03:47:07;15.40;;;10.13;;
54795;SDS011;40693;43.884;20.340;2022-08-21T03:49:34;12.27;;;9.13;;
54795;SDS011;40693;43.884;20.340;2022-08-21T03:52:00;11.02;;;9.30;;
54795;SDS011;40693;43.884;20.340;2022-08-21T03:54:26;16.80;;;10.45;;
54795;SDS011;40693;43.884;20.340;2022-08-21T03:56:52;11.70;;;9.43;;
54795;SDS011;40693;43.884;20.340;2022-08-21T03:59:18;12.35;;;10.15;;
54795;SDS011;40693;43.884;20.340;2022-08-21T04:01:56;13.95;;;11.25;;
54795;SDS011;40693;43.884;20.340;2022-08-21T04:04:24;12.25;;;9.73;;
54795;SDS011;40693;43.884;20.340;2022-08-21T04:06:50;15.90;;;11.27;;
54795;SDS011;40693;43.884;20.340;2022-08-21T04:09:17;15.77;;;10.32;;
54795;SDS011;40693;43.884;20.340;2022-08-21T04:11:43;10.60;;;9.55;;
54795;SDS011;40693;43.884;20.340;2022-08-21T04:14:10;13.20;;;11.10;;
54795;SDS011;40693;43.884;20.340;2022-08-21T04:16:37;12.80;;;11.00;;
54795;SDS011;40693;43.884;20.340;2022-08-21T04:19:03;13.85;;;11.45;;
54795;SDS011;40693;43.884;20.340;2022-08-21T04:21:29;18.95;;;13.00;;
54795;SDS011;40693;43.884;20.340;2022-08-21T04:23:55;16.33;;;11.57;;
54795;SDS011;40693;43.884;20.340;2022-08-21T04:26:21;18.27;;;12.18;;
54795;SDS011;40693;43.884;20.340;2022-08-21T04:28:47;14.73;;;11.43;;
54795;SDS011;40693;43.884;20.340;2022-08-21T04:31:13;14.38;;;11.13;;
54795;SDS011;40693;43.884;20.340;2022-08-21T04:33:38;19.55;;;12.85;;
54795;SDS011;40693;43.884;20.340;2022-08-21T04:36:04;13.85;;;10.00;;
54795;SDS011;40693;43.884;20.340;2022-08-21T04:38:31;12.73;;;10.02;;
54795;SDS011;40693;43.884;20.340;2022-08-21T04:40:57;15.40;;;9.30;;
54795;SDS011;40693;43.884;20.340;2022-08-21T04:43:25;14.75;;;11.00;;
54795;SDS011;40693;43.884;20.340;2022-08-21T04:45:51;15.48;;;10.13;;
54795;SDS011;40693;43.884;20.340;2022-08-21T04:48:18;12.82;;;9.43;;
54795;SDS011;40693;43.884;20.340;2022-08-21T04:53:29;14.93;;;9.52;;
54795;SDS011;40693;43.884;20.340;2022-08-21T04:55:56;11.52;;;8.30;;
54795;SDS011;40693;43.884;20.340;2022-08-21T04:58:24;11.02;;;8.15;;
54795;SDS011;40693;43.884;20.340;2022-08-21T05:00:52;10.40;;;6.97;;
54795;SDS011;40693;43.884;20.340;2022-08-21T05:03:21;9.25;;;7.18;;
54795;SDS011;40693;43.884;20.340;2022-08-21T05:05:47;8.98;;;7.15;;
54795;SDS011;40693;43.884;20.340;2022-08-21T05:08:15;10.02;;;7.68;;
54795;SDS011;40693;43.884;20.340;2022-08-21T05:10:45;13.07;;;8.95;;
54795;SDS011;40693;43.884;20.340;2022-08-21T05:13:11;14.95;;;10.70;;
54795;SDS011;40693;43.884;20.340;2022-08-21T05:15:38;19.00;;;11.95;;
54795;SDS011;40693;43.884;20.340;2022-08-21T05:18:04;15.73;;;11.82;;
54795;SDS011;40693;43.884;20.340;2022-08-21T05:20:31;18.52;;;13.40;;
54795;SDS011;40693;43.884;20.340;2022-08-21T05:23:01;15.07;;;11.07;;
54795;SDS011;40693;43.884;20.340;2022-08-21T05:25:33;12.82;;;10.15;;
54795;SDS011;40693;43.884;20.340;2022-08-21T05:27:59;14.75;;;10.00;;
54795;SDS011;40693;43.884;20.340;2022-08-21T05:30:24;12.35;;;8.45;;
54795;SDS011;40693;43.884;20.340;2022-08-21T05:32:55;10.40;;;7.95;;
54795;SDS011;40693;43.884;20.340;2022-08-21T05:35:22;16.00;;;8.33;;
54795;SDS011;40693;43.884;20.340;2022-08-21T05:37:48;10.65;;;7.32;;
54795;SDS011;40693;43.884;20.340;2022-08-21T05:40:13;11.32;;;8.43;;
54795;SDS011;40693;43.884;20.340;2022-08-21T05:42:39;8.60;;;7.13;;
54795;SDS011;40693;43.884;20.340;2022-08-21T05:45:05;9.25;;;6.93;;
54795;SDS011;40693;43.884;20.340;2022-08-21T05:47:31;10.38;;;7.75;;
54795;SDS011;40693;43.884;20.340;2022-08-21T05:49:57;11.70;;;7.13;;
54795;SDS011;40693;43.884;20.340;2022-08-21T05:52:23;8.55;;;6.38;;
54795;SDS011;40693;43.884;20.340;2022-08-21T05:54:49;9.15;;;6.78;;
54795;SDS011;40693;43.884;20.340;2022-08-21T05:57:15;11.38;;;8.05;;
54795;SDS011;40693;43.884;20.340;2022-08-21T05:59:41;8.65;;;7.35;;
54795;SDS011;40693;43.884;20.340;2022-08-21T06:02:06;9.00;;;7.13;;
54795;SDS011;40693;43.884;20.340;2022-08-21T06:04:36;10.73;;;6.78;;
54795;SDS011;40693;43.884;20.340;2022-08-21T06:07:03;11.20;;;7.32;;
54795;SDS011;40693;43.884;20.340;2022-08-21T06:09:29;12.65;;;7.50;;
54795;SDS011;40693;43.884;20.340;2022-08-21T06:11:55;15.77;;;7.43;;
54795;SDS011;40693;43.884;20.340;2022-08-21T06:14:21;8.65;;;7.32;;
54795;SDS011;40693;43.884;20.340;2022-08-21T06:16:48;17.67;;;7.88;;
54795;SDS011;40693;43.884;20.340;2022-08-21T06:19:14;7.75;;;6.95;;
54795;SDS011;40693;43.884;20.340;2022-08-21T06:21:39;11.77;;;7.28;;
54795;SDS011;40693;43.884;20.340;2022-08-21T06:24:05;9.75;;;6.88;;
54795;SDS011;40693;43.884;20.340;2022-08-21T06:26:32;10.20;;;7.60;;
54795;SDS011;40693;43.884;20.340;2022-08-21T06:28:58;9.45;;;6.97;;
54795;SDS011;40693;43.884;20.340;2022-08-21T06:31:25;13.77;;;7.10;;
54795;SDS011;40693;43.884;20.340;2022-08-21T06:33:53;8.57;;;5.82;;
54795;SDS011;40693;43.884;20.340;2022-08-21T06:36:19;11.27;;;7.38;;
54795;SDS011;40693;43.884;20.340;2022-08-21T06:38:46;11.48;;;6.90;;
54795;SDS011;40693;43.884;20.340;2022-08-21T06:41:12;8.50;;;6.63;;
54795;SDS011;40693;43.884;20.340;2022-08-21T06:43:38;9.70;;;6.88;;
54795;SDS011;40693;43.884;20.340;2022-08-21T06:46:04;9.13;;;6.47;;
54795;SDS011;40693;43.884;20.340;2022-08-21T06:48:30;10.10;;;6.57;;
54795;SDS011;40693;43.884;20.340;2022-08-21T06:50:58;10.30;;;6.05;;
54795;SDS011;40693;43.884;20.340;2022-08-21T06:53:25;10.82;;;6.45;;
54795;SDS011;40693;43.884;20.340;2022-08-21T06:55:52;7.60;;;6.05;;
54795;SDS011;40693;43.884;20.340;2022-08-21T06:58:17;10.70;;;7.13;;
54795;SDS011;40693;43.884;20.340;2022-08-21T07:00:46;9.10;;;6.55;;
54795;SDS011;40693;43.884;20.340;2022-08-21T07:03:29;8.77;;;6.80;;
54795;SDS011;40693;43.884;20.340;2022-08-21T07:05:56;10.40;;;6.57;;
54795;SDS011;40693;43.884;20.340;2022-08-21T07:08:23;9.80;;;6.43;;
54795;SDS011;40693;43.884;20.340;2022-08-21T07:10:51;11.70;;;6.95;;
54795;SDS011;40693;43.884;20.340;2022-08-21T07:13:18;10.13;;;6.78;;
54795;SDS011;40693;43.884;20.340;2022-08-21T07:15:44;11.48;;;6.68;;
54795;SDS011;40693;43.884;20.340;2022-08-21T07:18:10;10.95;;;7.00;;
54795;SDS011;40693;43.884;20.340;2022-08-21T07:20:37;13.32;;;6.65;;
54795;SDS011;40693;43.884;20.340;2022-08-21T07:23:03;22.63;;;7.25;;
54795;SDS011;40693;43.884;20.340;2022-08-21T07:25:32;8.75;;;6.43;;
54795;SDS011;40693;43.884;20.340;2022-08-21T07:27:58;12.05;;;7.18;;
54795;SDS011;40693;43.884;20.340;2022-08-21T07:30:24;8.82;;;6.57;;
54795;SDS011;40693;43.884;20.340;2022-08-21T07:32:50;9.48;;;7.50;;
54795;SDS011;40693;43.884;20.340;2022-08-21T07:35:17;9.75;;;6.55;;
54795;SDS011;40693;43.884;20.340;2022-08-21T07:37:43;9.57;;;7.22;;
54795;SDS011;40693;43.884;20.340;2022-08-21T07:40:09;9.27;;;6.65;;
54795;SDS011;40693;43.884;20.340;2022-08-21T07:42:39;8.88;;;7.22;;
54795;SDS011;40693;43.884;20.340;2022-08-21T07:45:06;8.60;;;6.63;;
54795;SDS011;40693;43.884;20.340;2022-08-21T07:47:32;9.70;;;7.25;;
54795;SDS011;40693;43.884;20.340;2022-08-21T07:49:58;11.00;;;6.65;;
54795;SDS011;40693;43.884;20.340;2022-08-21T07:52:24;12.38;;;7.47;;
54795;SDS011;40693;43.884;20.340;2022-08-21T07:54:50;12.25;;;8.18;;
54795;SDS011;40693;43.884;20.340;2022-08-21T07:57:15;9.68;;;6.63;;
54795;SDS011;40693;43.884;20.340;2022-08-21T07:59:41;12.43;;;7.55;;
54795;SDS011;40693;43.884;20.340;2022-08-21T08:02:07;11.48;;;7.63;;
54795;SDS011;40693;43.884;20.340;2022-08-21T08:04:33;11.07;;;7.47;;
54795;SDS011;40693;43.884;20.340;2022-08-21T08:06:58;11.50;;;7.75;;
54795;SDS011;40693;43.884;20.340;2022-08-21T08:09:24;10.80;;;7.32;;
54795;SDS011;40693;43.884;20.340;2022-08-21T08:11:50;12.15;;;6.90;;
54795;SDS011;40693;43.884;20.340;2022-08-21T08:14:16;10.73;;;7.90;;
54795;SDS011;40693;43.884;20.340;2022-08-21T08:16:42;11.05;;;7.55;;
54795;SDS011;40693;43.884;20.340;2022-08-21T08:19:08;13.93;;;9.35;;
54795;SDS011;40693;43.884;20.340;2022-08-21T08:21:33;10.82;;;7.97;;
54795;SDS011;40693;43.884;20.340;2022-08-21T08:24:01;8.60;;;6.45;;
54795;SDS011;40693;43.884;20.340;2022-08-21T08:26:27;8.48;;;6.45;;
54795;SDS011;40693;43.884;20.340;2022-08-21T08:28:53;8.32;;;6.00;;
54795;SDS011;40693;43.884;20.340;2022-08-21T08:31:18;9.93;;;7.05;;
54795;SDS011;40693;43.884;20.340;2022-08-21T08:33:44;8.98;;;6.95;;
54795;SDS011;40693;43.884;20.340;2022-08-21T08:36:14;8.65;;;6.85;;
54795;SDS011;40693;43.884;20.340;2022-08-21T08:38:42;9.23;;;6.77;;
54795;SDS011;40693;43.884;20.340;2022-08-21T08:41:12;8.07;;;6.38;;
54795;SDS011;40693;43.884;20.340;2022-08-21T08:43:53;9.20;;;6.97;;
54795;SDS011;40693;43.884;20.340;2022-08-21T08:46:25;9.98;;;5.95;;
54795;SDS011;40693;43.884;20.340;2022-08-21T08:49:08;8.27;;;6.57;;
54795;SDS011;40693;43.884;20.340;2022-08-21T08:52:00;8.07;;;5.53;;
54795;SDS011;40693;43.884;20.340;2022-08-21T08:57:15;8.93;;;5.97;;
54795;SDS011;40693;43.884;20.340;2022-08-21T08:59:47;6.75;;;4.65;;
54795;SDS011;40693;43.884;20.340;2022-08-21T09:02:17;9.68;;;6.18;;
54795;SDS011;40693;43.884;20.340;2022-08-21T09:04:44;9.43;;;7.00;;
54795;SDS011;40693;43.884;20.340;2022-08-21T09:07:16;10.90;;;5.68;;
54795;SDS011;40693;43.884;20.340;2022-08-21T09:23:32;5.40;;;3.33;;
54795;SDS011;40693;43.884;20.340;2022-08-21T09:26:23;4.65;;;2.53;;
54795;SDS011;40693;43.884;20.340;2022-08-21T09:28:53;3.88;;;3.03;;
54795;SDS011;40693;43.884;20.340;2022-08-21T09:33:58;5.07;;;3.05;;
54795;SDS011;40693;43.884;20.340;2022-08-21T09:39:05;7.38;;;4.22;;
54795;SDS011;40693;43.884;20.340;2022-08-21T09:41:32;12.82;;;4.45;;
54795;SDS011;40693;43.884;20.340;2022-08-21T09:44:00;11.23;;;4.07;;
54795;SDS011;40693;43.884;20.340;2022-08-21T09:46:27;7.65;;;3.42;;
54795;SDS011;40693;43.884;20.340;2022-08-21T09:48:55;8.00;;;3.70;;
54795;SDS011;40693;43.884;20.340;2022-08-21T09:51:25;6.10;;;3.78;;
54795;SDS011;40693;43.884;20.340;2022-08-21T09:56:38;5.88;;;3.35;;
54795;SDS011;40693;43.884;20.340;2022-08-21T09:59:36;6.18;;;4.55;;
54795;SDS011;40693;43.884;20.340;2022-08-21T10:04:59;4.70;;;3.20;;
54795;SDS011;40693;43.884;20.340;2022-08-21T10:07:43;6.90;;;3.58;;
54795;SDS011;40693;43.884;20.340;2022-08-21T10:10:14;6.68;;;3.53;;
54795;SDS011;40693;43.884;20.340;2022-08-21T10:21:35;4.00;;;3.22;;
54795;SDS011;40693;43.884;20.340;2022-08-21T10:26:43;5.95;;;3.30;;
54795;SDS011;40693;43.884;20.340;2022-08-21T10:29:44;4.53;;;2.78;;
54795;SDS011;40693;43.884;20.340;2022-08-21T10:40:44;7.10;;;4.00;;
54795;SDS011;40693;43.884;20.340;2022-08-21T10:43:21;7.03;;;4.60;;
54795;SDS011;40693;43.884;20.340;2022-08-21T10:49:16;6.47;;;4.07;;
54795;SDS011;40693;43.884;20.340;2022-08-21T10:57:02;5.50;;;4.38;;
54795;SDS011;40693;43.884;20.340;2022-08-21T10:59:38;5.75;;;3.95;;
54795;SDS011;40693;43.884;20.340;2022-08-21T11:02:50;4.32;;;3.13;;
54795;SDS011;40693;43.884;20.340;2022-08-21T11:05:20;4.50;;;3.40;;
54795;SDS011;40693;43.884;20.340;2022-08-21T11:07:54;4.45;;;2.72;;
54795;SDS011;40693;43.884;20.340;2022-08-21T11:10:30;4.80;;;3.33;;
54795;SDS011;40693;43.884;20.340;2022-08-21T11:18:34;5.32;;;2.95;;
54795;SDS011;40693;43.884;20.340;2022-08-21T11:29:09;2.38;;;1.92;;
54795;SDS011;40693;43.884;20.340;2022-08-21T11:34:35;3.80;;;1.95;;
54795;SDS011;40693;43.884;20.340;2022-08-21T11:40:12;3.83;;;2.60;;
54795;SDS011;40693;43.884;20.340;2022-08-21T11:45:54;4.53;;;2.35;;
54795;SDS011;40693;43.884;20.340;2022-08-21T11:51:22;3.83;;;2.42;;
54795;SDS011;40693;43.884;20.340;2022-08-21T11:54:19;4.70;;;3.03;;
54795;SDS011;40693;43.884;20.340;2022-08-21T11:56:46;5.35;;;3.58;;
54795;SDS011;40693;43.884;20.340;2022-08-21T11:59:20;6.20;;;3.55;;
54795;SDS011;40693;43.884;20.340;2022-08-21T12:01:57;4.32;;;2.95;;
54795;SDS011;40693;43.884;20.340;2022-08-21T12:04:35;3.90;;;2.33;;
54795;SDS011;40693;43.884;20.340;2022-08-21T12:07:11;4.82;;;3.08;;
54795;SDS011;40693;43.884;20.340;2022-08-21T12:09:39;6.75;;;3.45;;
54795;SDS011;40693;43.884;20.340;2022-08-21T12:12:07;9.52;;;4.85;;
54795;SDS011;40693;43.884;20.340;2022-08-21T12:14:41;7.88;;;6.15;;
54795;SDS011;40693;43.884;20.340;2022-08-21T12:17:16;8.10;;;6.70;;
54795;SDS011;40693;43.884;20.340;2022-08-21T12:19:58;7.18;;;6.00;;
54795;SDS011;40693;43.884;20.340;2022-08-21T12:25:18;9.90;;;8.18;;
54795;SDS011;40693;43.884;20.340;2022-08-21T12:27:49;10.43;;;8.90;;
54795;SDS011;40693;43.884;20.340;2022-08-21T12:32:56;9.32;;;8.20;;
54795;SDS011;40693;43.884;20.340;2022-08-21T12:35:30;11.63;;;10.03;;
54795;SDS011;40693;43.884;20.340;2022-08-21T12:38:07;12.20;;;10.43;;
54795;SDS011;40693;43.884;20.340;2022-08-21T12:43:29;11.57;;;9.48;;
54795;SDS011;40693;43.884;20.340;2022-08-21T12:45:56;12.88;;;10.43;;
54795;SDS011;40693;43.884;20.340;2022-08-21T12:48:29;13.80;;;11.30;;
54795;SDS011;40693;43.884;20.340;2022-08-21T12:51:13;13.55;;;11.00;;
54795;SDS011;40693;43.884;20.340;2022-08-21T12:56:21;13.43;;;11.73;;
54795;SDS011;40693;43.884;20.340;2022-08-21T12:58:52;19.65;;;12.95;;
54795;SDS011;40693;43.884;20.340;2022-08-21T13:01:25;13.67;;;11.80;;
54795;SDS011;40693;43.884;20.340;2022-08-21T13:03:57;14.30;;;11.55;;
54795;SDS011;40693;43.884;20.340;2022-08-21T13:06:26;13.73;;;12.07;;
54795;SDS011;40693;43.884;20.340;2022-08-21T13:08:57;12.35;;;11.10;;
54795;SDS011;40693;43.884;20.340;2022-08-21T13:11:32;15.02;;;12.70;;
54795;SDS011;40693;43.884;20.340;2022-08-21T13:13:58;14.00;;;11.73;;
54795;SDS011;40693;43.884;20.340;2022-08-21T13:16:27;14.75;;;11.68;;
54795;SDS011;40693;43.884;20.340;2022-08-21T13:18:56;16.40;;;13.10;;
54795;SDS011;40693;43.884;20.340;2022-08-21T13:21:31;16.38;;;12.45;;
54795;SDS011;40693;43.884;20.340;2022-08-21T13:24:16;19.08;;;13.15;;
54795;SDS011;40693;43.884;20.340;2022-08-21T13:26:52;18.27;;;15.18;;
54795;SDS011;40693;43.884;20.340;2022-08-21T13:29:20;18.63;;;14.30;;
54795;SDS011;40693;43.884;20.340;2022-08-21T13:31:52;19.75;;;16.13;;
54795;SDS011;40693;43.884;20.340;2022-08-21T13:34:20;19.15;;;14.60;;
54795;SDS011;40693;43.884;20.340;2022-08-21T13:36:51;20.10;;;14.55;;
54795;SDS011;40693;43.884;20.340;2022-08-21T13:39:23;14.55;;;11.50;;
54795;SDS011;40693;43.884;20.340;2022-08-21T13:41:51;15.90;;;13.40;;
54795;SDS011;40693;43.884;20.340;2022-08-21T13:44:31;14.15;;;11.35;;
54795;SDS011;40693;43.884;20.340;2022-08-21T13:47:04;14.43;;;12.07;;
54795;SDS011;40693;43.884;20.340;2022-08-21T13:49:42;14.40;;;11.55;;
54795;SDS011;40693;43.884;20.340;2022-08-21T13:52:20;13.90;;;11.60;;
54795;SDS011;40693;43.884;20.340;2022-08-21T13:54:55;14.98;;;11.82;;
54795;SDS011;40693;43.884;20.340;2022-08-21T13:59:51;14.25;;;10.98;;
54795;SDS011;40693;43.884;20.340;2022-08-21T14:02:21;13.02;;;10.48;;
54795;SDS011;40693;43.884;20.340;2022-08-21T14:05:07;12.85;;;10.05;;
54795;SDS011;40693;43.884;20.340;2022-08-21T14:07:44;14.02;;;10.82;;
54795;SDS011;40693;43.884;20.340;2022-08-21T14:10:11;11.55;;;10.20;;
54795;SDS011;40693;43.884;20.340;2022-08-21T14:15:16;9.13;;;7.00;;
54795;SDS011;40693;43.884;20.340;2022-08-21T14:17:44;11.52;;;8.93;;
54795;SDS011;40693;43.884;20.340;2022-08-21T14:20:11;11.88;;;9.48;;
54795;SDS011;40693;43.884;20.340;2022-08-21T14:22:50;10.98;;;9.30;;
54795;SDS011;40693;43.884;20.340;2022-08-21T14:27:52;11.23;;;9.77;;
54795;SDS011;40693;43.884;20.340;2022-08-21T14:30:21;11.43;;;8.45;;
54795;SDS011;40693;43.884;20.340;2022-08-21T14:32:53;12.73;;;10.07;;
54795;SDS011;40693;43.884;20.340;2022-08-21T14:35:19;10.23;;;8.20;;
54795;SDS011;40693;43.884;20.340;2022-08-21T14:37:46;13.00;;;8.82;;
54795;SDS011;40693;43.884;20.340;2022-08-21T14:40:15;11.55;;;9.10;;
54795;SDS011;40693;43.884;20.340;2022-08-21T14:42:42;11.63;;;8.38;;
54795;SDS011;40693;43.884;20.340;2022-08-21T14:45:19;10.30;;;8.43;;
54795;SDS011;40693;43.884;20.340;2022-08-21T14:50:17;12.20;;;8.50;;
54795;SDS011;40693;43.884;20.340;2022-08-21T14:52:43;8.93;;;7.22;;
54795;SDS011;40693;43.884;20.340;2022-08-21T14:55:10;10.20;;;8.60;;
54795;SDS011;40693;43.884;20.340;2022-08-21T14:57:39;9.95;;;7.53;;
54795;SDS011;40693;43.884;20.340;2022-08-21T15:00:10;9.80;;;7.45;;
54795;SDS011;40693;43.884;20.340;2022-08-21T15:02:37;8.70;;;7.35;;
54795;SDS011;40693;43.884;20.340;2022-08-21T15:05:03;7.72;;;6.70;;
54795;SDS011;40693;43.884;20.340;2022-08-21T15:07:29;9.23;;;6.10;;
54795;SDS011;40693;43.884;20.340;2022-08-21T15:09:55;6.25;;;5.25;;
54795;SDS011;40693;43.884;20.340;2022-08-21T15:12:21;5.65;;;5.05;;
54795;SDS011;40693;43.884;20.340;2022-08-21T15:14:48;9.30;;;7.00;;
54795;SDS011;40693;43.884;20.340;2022-08-21T15:17:13;8.05;;;6.80;;
54795;SDS011;40693;43.884;20.340;2022-08-21T15:19:39;7.32;;;6.13;;
54795;SDS011;40693;43.884;20.340;2022-08-21T15:22:06;11.23;;;6.82;;
54795;SDS011;40693;43.884;20.340;2022-08-21T15:24:31;7.85;;;5.93;;
54795;SDS011;40693;43.884;20.340;2022-08-21T15:26:58;7.85;;;6.18;;
54795;SDS011;40693;43.884;20.340;2022-08-21T15:29:26;8.30;;;6.28;;
54795;SDS011;40693;43.884;20.340;2022-08-21T15:31:54;7.38;;;6.13;;
54795;SDS011;40693;43.884;20.340;2022-08-21T15:34:22;11.73;;;9.73;;
54795;SDS011;40693;43.884;20.340;2022-08-21T15:36:50;16.00;;;12.77;;
54795;SDS011;40693;43.884;20.340;2022-08-21T15:39:16;17.00;;;13.75;;
54795;SDS011;40693;43.884;20.340;2022-08-21T15:41:42;15.85;;;13.27;;
54795;SDS011;40693;43.884;20.340;2022-08-21T15:44:09;17.00;;;13.52;;
54795;SDS011;40693;43.884;20.340;2022-08-21T15:46:37;19.48;;;14.00;;
54795;SDS011;40693;43.884;20.340;2022-08-21T15:49:03;18.40;;;14.60;;
54795;SDS011;40693;43.884;20.340;2022-08-21T15:51:29;18.25;;;13.20;;
54795;SDS011;40693;43.884;20.340;2022-08-21T15:53:55;17.33;;;12.57;;
54795;SDS011;40693;43.884;20.340;2022-08-21T15:56:24;17.65;;;13.88;;
54795;SDS011;40693;43.884;20.340;2022-08-21T15:58:58;15.82;;;13.45;;
54795;SDS011;40693;43.884;20.340;2022-08-21T16:01:26;14.13;;;12.18;;
54795;SDS011;40693;43.884;20.340;2022-08-21T16:03:52;17.63;;;13.20;;
54795;SDS011;40693;43.884;20.340;2022-08-21T16:06:19;16.80;;;11.98;;
54795;SDS011;40693;43.884;20.340;2022-08-21T16:08:45;17.17;;;11.95;;
54795;SDS011;40693;43.884;20.340;2022-08-21T16:11:11;13.40;;;11.48;;
54795;SDS011;40693;43.884;20.340;2022-08-21T16:13:40;16.15;;;11.73;;
54795;SDS011;40693;43.884;20.340;2022-08-21T16:16:11;14.50;;;11.48;;
54795;SDS011;40693;43.884;20.340;2022-08-21T16:21:06;13.77;;;11.15;;